createdAt,value
2022-08-09T00:00:28.662Z,44.79
2022-08-09T00:03:00.373Z,44.63
2022-08-09T00:06:19.203Z,44.28
2022-08-09T00:08:32.006Z,44.56
2022-08-09T00:11:06.046Z,44.80
2022-08-09T00:13:56.091Z,44.08
2022-08-09T00:16:36.500Z,44.75
2022-08-09T00:19:10.518Z,44.65
2022-08-09T00:21:55.437Z,44.06
2022-08-09T00:24:28.186Z,44.77
2022-08-09T00:26:59.830Z,44.83
2022-08-09T00:29:39.476Z,44.07
2022-08-09T00:32:35.767Z,44.27
2022-08-09T00:35:09.641Z,44.83
2022-08-09T00:37:41.577Z,44.33
2022-08-09T00:40:17.360Z,44.43
2022-08-09T00:44:11.352Z,44.28
2022-08-09T00:45:50.579Z,44.43
2022-08-09T00:48:27.324Z,44.81
2022-08-09T00:51:00.047Z,44.23
2022-08-09T00:53:31.486Z,44.58
2022-08-09T00:56:09.877Z,44.47
2022-08-09T00:58:41.730Z,44.42
2022-08-09T01:01:32.487Z,44.41
2022-08-09T01:04:31.980Z,44.43
2022-08-09T01:07:17.416Z,44.88
2022-08-09T01:09:59.376Z,44.75
2022-08-09T01:12:41.169Z,44.39
2022-08-09T01:15:18.656Z,44.50
2022-08-09T01:18:00.717Z,44.62
2022-08-09T01:20:51.975Z,44.46
2022-08-09T01:24:03.329Z,44.98
2022-08-09T01:26:59.332Z,44.38
2022-08-09T01:29:55.730Z,44.92
2022-08-09T01:32:35.148Z,44.77
2022-08-09T01:35:37.943Z,45.11
2022-08-09T01:38:15.913Z,45.11
2022-08-09T01:41:03.119Z,44.97
2022-08-09T01:43:51.993Z,44.74
2022-08-09T01:46:27.522Z,45.18
2022-08-09T01:49:10.783Z,44.92
2022-08-09T01:51:53.005Z,45.12
2022-08-09T01:54:32.820Z,44.66
2022-08-09T01:57:11.060Z,44.66
2022-08-09T01:59:53.133Z,45.04
2022-08-09T02:02:35.712Z,44.78
2022-08-09T02:05:15.926Z,45.15
2022-08-09T02:08:40.657Z,44.71
2022-08-09T02:10:51.942Z,44.64
2022-08-09T02:13:40.240Z,45.32
2022-08-09T02:16:16.585Z,44.67
2022-08-09T02:18:47.824Z,45.09
2022-08-09T02:21:24.552Z,44.66
2022-08-09T02:24:03.306Z,44.68
2022-08-09T02:26:39.827Z,45.25
2022-08-09T02:29:26.183Z,45.11
2022-08-09T02:32:06.912Z,45.35
2022-08-09T02:34:51.942Z,44.79
2022-08-09T02:37:36.587Z,44.89
2022-08-09T02:40:15.503Z,44.74
2022-08-09T02:42:59.879Z,44.73
2022-08-09T02:45:36.015Z,45.42
2022-08-09T02:48:30.518Z,44.82
2022-08-09T02:51:04.714Z,45.22
2022-08-09T02:53:43.161Z,45.17
2022-08-09T02:56:33.347Z,45.02
2022-08-09T02:59:08.785Z,44.87
2022-08-09T03:02:06.240Z,44.76
2022-08-09T03:04:39.237Z,45.53
2022-08-09T03:07:14.387Z,45.48
2022-08-09T03:09:53.926Z,44.84
2022-08-09T03:12:30.869Z,45.38
2022-08-09T03:15:02.974Z,44.93
2022-08-09T03:17:42.113Z,45.13
2022-08-09T03:20:18.483Z,45.06
2022-08-09T03:22:58.405Z,45.43
2022-08-09T03:26:03.437Z,44.95
2022-08-09T03:28:38.179Z,44.96
2022-08-09T03:31:21.261Z,44.93
2022-08-09T03:33:56.564Z,45.16
2022-08-09T03:36:31.665Z,45.41
2022-08-09T03:39:05.595Z,45.21
2022-08-09T03:41:45.943Z,45.60
2022-08-09T03:44:19.728Z,45.29
2022-08-09T03:46:58.516Z,45.38
2022-08-09T03:49:35.747Z,45.72
2022-08-09T03:52:11.428Z,45.05
2022-08-09T03:54:44.146Z,45.64
2022-08-09T03:57:20.486Z,45.52
2022-08-09T04:00:00.491Z,45.60
2022-08-09T04:02:35.077Z,45.13
2022-08-09T04:05:17.120Z,45.21
2022-08-09T04:08:00.516Z,45.51
2022-08-09T04:10:33.140Z,45.90
2022-08-09T04:13:11.621Z,45.39
2022-08-09T04:16:19.758Z,45.33
2022-08-09T04:18:36.163Z,45.34
2022-08-09T04:21:07.435Z,45.17
2022-08-09T04:23:41.491Z,45.20
2022-08-09T04:26:25.226Z,45.92
2022-08-09T04:29:14.711Z,45.44
2022-08-09T04:31:47.700Z,45.33
2022-08-09T04:34:30.578Z,45.88
2022-08-09T04:37:03.497Z,45.87
2022-08-09T04:39:40.506Z,45.36
2022-08-09T04:42:12.192Z,45.91
2022-08-09T04:44:49.048Z,45.10
2022-08-09T04:47:20.749Z,45.32
2022-08-09T04:49:55.575Z,45.89
2022-08-09T04:52:29.833Z,45.36
2022-08-09T04:55:09.371Z,45.86
2022-08-09T04:57:54.229Z,45.31
2022-08-09T05:00:31.838Z,45.91
2022-08-09T05:03:30.025Z,45.38
2022-08-09T05:06:06.703Z,45.99
2022-08-09T05:08:38.109Z,45.42
2022-08-09T05:11:10.973Z,45.51
2022-08-09T05:13:43.315Z,45.60
2022-08-09T05:16:14.977Z,45.50
2022-08-09T05:18:58.813Z,45.68
2022-08-09T05:21:36.447Z,45.98
2022-08-09T05:24:17.927Z,45.53
2022-08-09T05:26:51.115Z,45.50
2022-08-09T05:29:24.092Z,45.40
2022-08-09T05:32:00.700Z,45.58
2022-08-09T05:34:32.920Z,45.39
2022-08-09T05:37:07.388Z,45.61
2022-08-09T05:39:44.617Z,45.49
2022-08-09T05:42:21.494Z,45.40
2022-08-09T05:44:54.996Z,46.06
2022-08-09T05:47:30.311Z,45.86
2022-08-09T05:50:25.157Z,46.10
2022-08-09T05:52:55.669Z,46.10
2022-08-09T05:55:27.677Z,45.94
2022-08-09T05:58:04.187Z,45.94
2022-08-09T06:00:38.307Z,46.00
2022-08-09T06:03:10.707Z,45.98
2022-08-09T06:05:57.564Z,45.52
2022-08-09T06:08:34.076Z,45.17
2022-08-09T06:11:16.318Z,45.98
2022-08-09T06:13:50.001Z,45.85
2022-08-09T06:16:23.986Z,45.64
2022-08-09T06:18:54.646Z,45.34
2022-08-09T06:21:25.151Z,45.51
2022-08-09T06:24:01.232Z,44.89
2022-08-09T06:26:34.851Z,45.72
2022-08-09T06:29:08.858Z,44.95
2022-08-09T06:32:17.312Z,45.13
2022-08-09T06:34:36.933Z,45.45
2022-08-09T06:37:10.039Z,45.11
2022-08-09T06:39:57.323Z,45.57
2022-08-09T06:42:33.686Z,44.96
2022-08-09T06:46:07.214Z,44.99
2022-08-09T06:48:09.659Z,45.19
2022-08-09T06:50:47.525Z,45.54
2022-08-09T06:53:18.498Z,44.88
2022-08-09T06:55:50.633Z,45.50
2022-08-09T06:58:40.635Z,44.80
2022-08-09T07:01:13.812Z,44.85
2022-08-09T07:03:52.538Z,44.92
2022-08-09T07:06:27.924Z,45.40
2022-08-09T07:09:00.600Z,44.81
2022-08-09T07:11:45.654Z,44.96
2022-08-09T07:14:26.369Z,44.78
2022-08-09T07:17:00.367Z,44.60
2022-08-09T07:19:31.864Z,44.43
2022-08-09T07:22:03.343Z,44.91
2022-08-09T07:24:40.139Z,44.58
2022-08-09T07:27:26.695Z,44.34
2022-08-09T07:30:06.991Z,44.77
2022-08-09T07:32:40.170Z,44.12
2022-08-09T07:35:14.746Z,44.78
2022-08-09T07:37:49.306Z,44.79
2022-08-09T07:40:26.776Z,44.19
2022-08-09T07:43:01.234Z,44.45
2022-08-09T07:45:39.572Z,44.57
2022-08-09T07:48:29.591Z,43.83
2022-08-09T07:52:02.596Z,44.20
2022-08-09T07:54:05.646Z,44.47
2022-08-09T07:56:44.983Z,44.44
2022-08-09T07:59:34.531Z,44.24
2022-08-09T08:02:19.112Z,43.79
2022-08-09T08:04:53.490Z,43.69
2022-08-09T08:08:42.424Z,44.22
2022-08-09T08:10:18.250Z,44.04
2022-08-09T08:12:49.826Z,43.72
2022-08-09T08:15:24.489Z,43.85
2022-08-09T08:17:58.677Z,43.92
2022-08-09T08:20:33.498Z,43.88
2022-08-09T08:23:15.984Z,43.67
2022-08-09T08:25:50.358Z,43.71
2022-08-09T08:28:52.367Z,43.51
2022-08-09T08:31:24.583Z,43.51
2022-08-09T08:34:17.213Z,43.26
2022-08-09T08:36:54.331Z,43.16
2022-08-09T08:39:26.585Z,43.49
2022-08-09T08:41:58.953Z,43.14
2022-08-09T08:44:37.451Z,43.19
2022-08-09T08:47:12.400Z,42.96
2022-08-09T08:49:48.103Z,43.14
2022-08-09T08:52:57.510Z,42.94
2022-08-09T08:55:19.152Z,42.94
2022-08-09T08:57:58.211Z,42.73
2022-08-09T09:00:34.702Z,43.12
2022-08-09T09:03:16.485Z,42.35
2022-08-09T09:06:04.629Z,42.64
2022-08-09T09:08:42.665Z,42.42
2022-08-09T09:11:17.888Z,42.53
2022-08-09T09:13:58.311Z,42.81
2022-08-09T09:16:35.734Z,42.50
2022-08-09T09:19:37.275Z,42.18
2022-08-09T09:22:11.473Z,42.40
2022-08-09T09:24:47.630Z,42.54
2022-08-09T09:28:05.766Z,42.38
2022-08-09T09:30:38.183Z,42.50
2022-08-09T09:33:15.863Z,42.33
2022-08-09T09:36:01.564Z,41.97
2022-08-09T09:38:49.399Z,42.24
2022-08-09T09:41:49.698Z,41.96
2022-08-09T09:44:31.591Z,41.87
2022-08-09T09:47:10.330Z,41.71
2022-08-09T09:50:06.827Z,42.04
2022-08-09T09:52:37.214Z,42.10
2022-08-09T09:55:24.077Z,41.97
2022-08-09T09:58:18.155Z,42.26
2022-08-09T10:00:55.705Z,42.06
2022-08-09T10:03:57.004Z,41.84
2022-08-09T10:06:32.661Z,41.85
2022-08-09T10:09:11.742Z,41.99
2022-08-09T10:12:14.931Z,41.82
2022-08-09T10:14:56.227Z,41.80
2022-08-09T10:17:50.802Z,41.73
2022-08-09T10:20:33.090Z,41.65
2022-08-09T10:23:21.095Z,42.04
2022-08-09T10:26:08.021Z,41.50
2022-08-09T10:28:48.748Z,41.95
2022-08-09T10:32:37.649Z,41.48
2022-08-09T10:34:32.503Z,41.60
2022-08-09T10:37:09.594Z,41.88
2022-08-09T10:39:49.133Z,41.31
2022-08-09T10:42:21.459Z,41.93
2022-08-09T10:45:04.245Z,41.91
2022-08-09T10:48:19.301Z,42.15
2022-08-09T10:51:13.667Z,41.98
2022-08-09T10:54:04.780Z,41.91
2022-08-09T10:56:37.824Z,41.64
2022-08-09T10:59:55.498Z,41.42
2022-08-09T11:03:15.058Z,41.28
2022-08-09T11:05:34.434Z,41.45
2022-08-09T11:08:47.548Z,42.05
2022-08-09T11:11:19.100Z,41.28
2022-08-09T11:14:10.563Z,42.02
2022-08-09T11:16:47.142Z,41.89
2022-08-09T11:20:11.463Z,41.52
2022-08-09T11:23:07.077Z,41.68
2022-08-09T11:26:00.466Z,41.86
2022-08-09T11:28:55.990Z,41.27
2022-08-09T11:31:52.796Z,42.02
2022-08-09T11:34:39.074Z,41.39
2022-08-09T11:37:18.060Z,41.96
2022-08-09T11:40:06.863Z,41.92
2022-08-09T11:42:48.504Z,41.59
2022-08-09T11:45:42.527Z,41.60
2022-08-09T11:48:27.051Z,41.47
2022-08-09T11:52:54.067Z,41.79
2022-08-09T11:54:27.668Z,41.18
2022-08-09T11:57:47.621Z,41.91
2022-08-09T12:00:33.898Z,41.38
2022-08-09T12:03:09.746Z,41.65
2022-08-09T12:06:01.317Z,42.10
2022-08-09T12:08:33.513Z,41.74
2022-08-09T12:11:12.791Z,41.79
2022-08-09T12:14:08.117Z,41.84
2022-08-09T12:16:42.917Z,41.63
2022-08-09T12:19:15.470Z,41.46
2022-08-09T12:21:51.873Z,41.73
2022-08-09T12:24:28.087Z,41.76
2022-08-09T12:28:58.818Z,41.87
2022-08-09T12:30:31.562Z,41.25
2022-08-09T12:33:04.175Z,41.85
2022-08-09T12:35:40.156Z,41.44
2022-08-09T12:38:29.761Z,41.16
2022-08-09T12:41:11.599Z,41.69
2022-08-09T12:44:05.283Z,41.65
2022-08-09T12:46:36.211Z,41.76
2022-08-09T12:49:09.223Z,41.45
2022-08-09T12:51:59.932Z,41.91
2022-08-09T12:56:12.786Z,41.87
2022-08-09T12:57:48.939Z,41.90
2022-08-09T13:00:25.177Z,41.88
2022-08-09T13:02:59.822Z,41.61
2022-08-09T13:05:51.633Z,41.47
2022-08-09T13:08:40.750Z,41.49
2022-08-09T13:11:13.204Z,41.96
2022-08-09T13:14:40.939Z,41.57
2022-08-09T13:16:53.558Z,41.82
2022-08-09T13:20:10.184Z,41.68
2022-08-09T13:22:36.844Z,41.90
2022-08-09T13:25:16.892Z,42.15
2022-08-09T13:27:55.840Z,41.52
2022-08-09T13:30:49.269Z,42.01
2022-08-09T13:33:53.086Z,41.64
2022-08-09T13:36:39.758Z,41.72
2022-08-09T13:41:19.296Z,42.31
2022-08-09T13:42:05.469Z,42.45
2022-08-09T13:44:44.818Z,42.45
2022-08-09T13:47:31.272Z,41.82
2022-08-09T13:50:17.854Z,42.13
2022-08-09T13:52:50.412Z,42.68
2022-08-09T13:55:22.330Z,42.24
2022-08-09T13:57:58.154Z,42.32
2022-08-09T14:00:32.146Z,42.41
2022-08-09T14:04:01.907Z,42.14
2022-08-09T14:06:02.789Z,42.12
2022-08-09T14:08:34.363Z,42.43
2022-08-09T14:11:16.012Z,42.09
2022-08-09T14:14:22.319Z,42.25
2022-08-09T14:16:38.420Z,41.99
2022-08-09T14:19:13.049Z,42.25
2022-08-09T14:21:45.285Z,42.18
2022-08-09T14:24:22.213Z,42.83
2022-08-09T14:27:04.045Z,42.45
2022-08-09T14:30:35.888Z,43.00
2022-08-09T14:32:43.985Z,43.09
2022-08-09T14:35:16.330Z,42.44
2022-08-09T14:38:02.386Z,42.53
2022-08-09T14:41:00.787Z,42.69
2022-08-09T14:43:26.899Z,43.21
2022-08-09T14:46:54.495Z,42.65
2022-08-09T14:49:10.613Z,43.34
2022-08-09T14:51:43.278Z,43.07
2022-08-09T14:54:15.054Z,43.11
2022-08-09T14:56:58.148Z,43.34
2022-08-09T14:59:29.502Z,43.37
2022-08-09T15:02:01.571Z,43.48
2022-08-09T15:04:33.464Z,43.50
2022-08-09T15:07:06.027Z,43.45
2022-08-09T15:10:10.339Z,43.35
2022-08-09T15:12:32.748Z,42.98
2022-08-09T15:15:03.959Z,43.14
2022-08-09T15:17:42.212Z,43.15
2022-08-09T15:21:56.202Z,43.18
2022-08-09T15:24:00.954Z,43.04
2022-08-09T15:26:01.932Z,43.71
2022-08-09T15:28:35.933Z,43.77
2022-08-09T15:31:18.492Z,43.85
2022-08-09T15:34:27.517Z,43.19
2022-08-09T15:36:40.568Z,43.50
2022-08-09T15:39:21.335Z,43.27
2022-08-09T15:41:53.748Z,43.17
2022-08-09T15:44:25.049Z,42.97
2022-08-09T15:46:56.383Z,43.01
2022-08-09T15:49:28.439Z,43.74
2022-08-09T15:52:04.758Z,43.05
2022-08-09T15:54:46.204Z,43.66
2022-08-09T15:57:33.838Z,43.29
2022-08-09T16:00:14.158Z,43.72
2022-08-09T16:02:53.565Z,43.23
2022-08-09T16:05:47.684Z,43.41
2022-08-09T16:08:30.996Z,43.68
2022-08-09T16:11:05.332Z,43.43
2022-08-09T16:14:03.760Z,43.61
2022-08-09T16:16:32.121Z,43.85
2022-08-09T16:19:03.205Z,43.76
2022-08-09T16:21:35.198Z,43.84
2022-08-09T16:24:08.874Z,43.44
2022-08-09T16:27:02.159Z,43.47
2022-08-09T16:29:36.628Z,44.01
2022-08-09T16:32:18.041Z,43.22
2022-08-09T16:35:02.476Z,44.03
2022-08-09T16:37:56.164Z,43.64
2022-08-09T16:40:40.012Z,43.59
2022-08-09T16:43:14.392Z,43.97
2022-08-09T16:45:45.921Z,43.58
2022-08-09T16:48:39.302Z,44.22
2022-08-09T16:51:14.185Z,44.20
2022-08-09T16:54:16.446Z,44.05
2022-08-09T16:56:49.316Z,43.54
2022-08-09T16:59:22.403Z,43.69
2022-08-09T17:01:53.379Z,44.18
2022-08-09T17:04:28.202Z,43.95
2022-08-09T17:08:40.653Z,44.11
2022-08-09T17:09:52.169Z,43.84
2022-08-09T17:12:33.346Z,44.30
2022-08-09T17:15:30.748Z,44.20
2022-08-09T17:18:00.820Z,44.19
2022-08-09T17:20:36.976Z,44.55
2022-08-09T17:23:14.755Z,44.56
2022-08-09T17:25:53.019Z,44.54
2022-08-09T17:28:25.544Z,44.28
2022-08-09T17:31:01.105Z,44.00
2022-08-09T17:33:35.771Z,44.40
2022-08-09T17:36:09.241Z,44.57
2022-08-09T17:38:57.525Z,44.16
2022-08-09T17:41:38.931Z,44.06
2022-08-09T17:44:41.677Z,44.73
2022-08-09T17:47:10.625Z,44.30
2022-08-09T17:49:50.977Z,44.21
2022-08-09T17:52:27.305Z,44.32
2022-08-09T17:54:58.294Z,44.87
2022-08-09T17:58:02.464Z,44.83
2022-08-09T18:00:33.557Z,44.87
2022-08-09T18:03:17.747Z,44.83
2022-08-09T18:05:52.881Z,44.71
2022-08-09T18:08:27.655Z,44.95
2022-08-09T18:11:01.737Z,44.26
2022-08-09T18:13:38.769Z,44.75
2022-08-09T18:16:29.095Z,44.78
2022-08-09T18:21:00.148Z,44.32
2022-08-09T18:21:54.669Z,44.87
2022-08-09T18:24:27.563Z,44.92
2022-08-09T18:27:01.254Z,44.78
2022-08-09T18:30:34.828Z,44.76
2022-08-09T18:32:24.656Z,44.89
2022-08-09T18:34:59.623Z,44.86
2022-08-09T18:37:47.206Z,45.07
2022-08-09T18:40:19.397Z,44.99
2022-08-09T18:42:58.108Z,44.62
2022-08-09T18:46:49.264Z,44.99
2022-08-09T18:48:21.547Z,44.39
2022-08-09T18:51:05.220Z,44.56
2022-08-09T18:53:56.587Z,44.73
2022-08-09T18:56:29.238Z,45.20
2022-08-09T18:59:01.020Z,44.99
2022-08-09T19:01:43.483Z,44.53
2022-08-09T19:04:17.892Z,45.12
2022-08-09T19:07:07.944Z,44.72
2022-08-09T19:10:15.778Z,44.75
2022-08-09T19:12:33.802Z,44.88
2022-08-09T19:15:09.951Z,44.66
2022-08-09T19:17:56.569Z,45.14
2022-08-09T19:20:34.465Z,44.76
2022-08-09T19:23:16.861Z,45.38
2022-08-09T19:26:07.354Z,45.09
2022-08-09T19:28:42.702Z,45.36
2022-08-09T19:31:20.039Z,44.97
2022-08-09T19:33:52.821Z,45.35
2022-08-09T19:36:23.939Z,45.43
2022-08-09T19:39:05.754Z,44.85
2022-08-09T19:41:37.425Z,45.06
2022-08-09T19:44:13.276Z,45.39
2022-08-09T19:46:50.648Z,45.02
2022-08-09T19:50:06.717Z,44.74
2022-08-09T19:52:16.261Z,44.98
2022-08-09T19:54:51.911Z,45.37
2022-08-09T19:57:25.820Z,45.38
2022-08-09T20:00:02.392Z,44.82
2022-08-09T20:04:07.357Z,44.91
2022-08-09T20:05:29.114Z,45.44
2022-08-09T20:08:33.338Z,45.49
2022-08-09T20:11:08.597Z,45.00
2022-08-09T20:13:40.044Z,44.97
2022-08-09T20:16:34.770Z,44.79
2022-08-09T20:19:48.517Z,44.87
2022-08-09T20:21:59.865Z,45.21
2022-08-09T20:24:34.456Z,45.00
2022-08-09T20:27:11.582Z,45.44
2022-08-09T20:29:45.865Z,44.95
2022-08-09T20:32:33.002Z,45.50
2022-08-09T20:35:05.810Z,45.02
2022-08-09T20:38:23.753Z,45.61
2022-08-09T20:40:29.317Z,45.26
2022-08-09T20:43:18.061Z,45.52
2022-08-09T20:45:59.070Z,45.51
2022-08-09T20:48:33.441Z,45.42
2022-08-09T20:51:05.352Z,45.48
2022-08-09T20:53:38.806Z,45.38
2022-08-09T20:56:21.302Z,44.97
2022-08-09T20:58:59.232Z,45.40
2022-08-09T21:01:35.507Z,45.66
2022-08-09T21:05:53.592Z,45.09
2022-08-09T21:07:15.979Z,45.71
2022-08-09T21:09:55.595Z,45.34
2022-08-09T21:15:34.334Z,45.09
2022-08-09T21:18:11.183Z,45.69
2022-08-09T21:20:56.113Z,45.31
2022-08-09T21:23:47.877Z,45.83
2022-08-09T21:26:18.255Z,45.26
2022-08-09T21:28:56.184Z,45.95
2022-08-09T21:31:48.519Z,45.95
2022-08-09T21:34:29.244Z,45.30
2022-08-09T21:37:00.607Z,45.76
2022-08-09T21:39:42.390Z,45.24
2022-08-09T21:42:14.309Z,45.37
2022-08-09T21:44:45.673Z,45.86
2022-08-09T21:47:19.296Z,45.58
2022-08-09T21:49:50.941Z,45.51
2022-08-09T21:52:24.498Z,45.91
2022-08-09T21:55:04.218Z,45.93
2022-08-09T21:57:58.829Z,45.40
2022-08-09T22:00:33.315Z,45.70
2022-08-09T22:03:19.102Z,45.79
2022-08-09T22:05:52.246Z,45.41
2022-08-09T22:08:24.729Z,45.29
2022-08-09T22:11:49.352Z,45.39
2022-08-09T22:13:48.701Z,45.66
2022-08-09T22:16:21.934Z,45.80
2022-08-09T22:18:57.030Z,45.53
2022-08-09T22:21:49.610Z,45.43
2022-08-09T22:24:24.854Z,45.19
2022-08-09T22:26:56.728Z,45.32
2022-08-09T22:29:38.340Z,45.13
2022-08-09T22:32:30.008Z,45.55
2022-08-09T22:35:06.576Z,45.10
2022-08-09T22:37:40.557Z,45.71
2022-08-09T22:40:19.982Z,45.67
2022-08-09T22:42:52.097Z,45.82
2022-08-09T22:48:18.806Z,45.85
2022-08-09T22:48:35.107Z,45.54
2022-08-09T22:51:10.818Z,45.46
2022-08-09T22:54:02.130Z,45.61
2022-08-09T22:56:34.583Z,45.69
2022-08-09T22:59:55.328Z,45.20
2022-08-09T23:01:58.215Z,45.79
2022-08-09T23:04:32.540Z,45.70
2022-08-09T23:07:31.084Z,45.22
2022-08-09T23:10:14.338Z,45.96
2022-08-09T23:12:45.366Z,45.72
2022-08-09T23:15:16.934Z,45.17
2022-08-09T23:17:48.260Z,45.45
2022-08-09T23:20:19.813Z,45.57
2022-08-09T23:22:53.222Z,45.36
2022-08-09T23:25:24.207Z,45.38
2022-08-09T23:28:14.453Z,45.54
2022-08-09T23:30:51.839Z,45.15
2022-08-09T23:33:23.571Z,45.79
2022-08-09T23:36:05.408Z,45.27
2022-08-09T23:38:48.997Z,45.46
2022-08-09T23:41:27.434Z,45.68
2022-08-09T23:44:02.495Z,45.76
2022-08-09T23:46:34.615Z,45.66
2022-08-09T23:49:06.440Z,45.34
2022-08-09T23:51:40.370Z,45.59
2022-08-09T23:54:13.979Z,45.41
2022-08-09T23:56:53.724Z,45.16
2022-08-09T23:59:47.041Z,45.82
